Time;durP1;ratioP1;P1;durP2;ratioP2;P2;SDS_P1;SDS_P2;PMS_P1;PMS_P2;Temp;Humidity;BMP_temperature;BMP_pressure;BME280_temperature;BME280_humidity;BME280_pressure;Samples;Min_cycle;Max_cycle;Signal;HPM_P1;HPM_P2
2021/10/16 00:00:23;;;;;;;10.23;8.80;;;7.90;99.90;;;;;;5005570;28;20581;-79
2021/10/16 00:02:50;;;;;;;12.90;11.90;;;7.90;99.90;;;;;;5005581;28;20212;-78
2021/10/16 00:05:17;;;;;;;11.13;10.20;;;8.00;99.90;;;;;;5005433;28;20211;-78
2021/10/16 00:07:43;;;;;;;15.53;14.20;;;8.00;99.90;;;;;;5005353;28;20236;-79
2021/10/16 00:10:10;;;;;;;16.17;14.67;;;8.10;99.90;;;;;;5006452;28;20254;-77
2021/10/16 00:12:38;;;;;;;15.67;14.27;;;8.10;99.90;;;;;;5005018;28;20624;-78
2021/10/16 00:15:07;;;;;;;15.30;14.07;;;8.20;99.90;;;;;;5001392;28;20196;-78
2021/10/16 00:17:34;;;;;;;15.00;13.83;;;8.20;99.90;;;;;;5003906;28;20234;-78
2021/10/16 00:20:00;;;;;;;15.73;14.37;;;8.20;99.90;;;;;;4999926;28;20198;-78
2021/10/16 00:22:27;;;;;;;16.00;14.70;;;8.20;99.90;;;;;;5014168;28;20204;-78
2021/10/16 00:24:54;;;;;;;15.37;14.10;;;8.20;99.90;;;;;;5003171;28;20200;-78
2021/10/16 00:27:21;;;;;;;15.60;14.30;;;8.20;99.90;;;;;;5003514;28;20763;-78
2021/10/16 00:29:49;;;;;;;14.77;13.60;;;8.20;99.90;;;;;;5003391;28;20195;-79
2021/10/16 00:32:16;;;;;;;15.67;14.37;;;8.20;99.90;;;;;;5002731;28;20213;-78
2021/10/16 00:34:43;;;;;;;16.13;14.63;;;8.20;99.90;;;;;;5019102;28;20278;-78
2021/10/16 00:37:09;;;;;;;17.37;15.67;;;8.20;99.90;;;;;;5001951;28;20283;-78
2021/10/16 00:39:36;;;;;;;15.47;14.27;;;8.20;99.90;;;;;;5019422;28;20295;-78
2021/10/16 00:42:04;;;;;;;16.07;14.70;;;8.20;99.90;;;;;;5001412;28;20210;-78
2021/10/16 00:44:31;;;;;;;15.53;14.20;;;8.20;99.90;;;;;;5004224;28;20622;-78
2021/10/16 00:46:59;;;;;;;15.63;14.40;;;8.30;99.90;;;;;;5006304;28;20234;-78
2021/10/16 00:49:27;;;;;;;16.93;15.63;;;8.30;99.90;;;;;;5004195;28;20218;-77
2021/10/16 00:51:55;;;;;;;16.20;14.90;;;8.30;99.90;;;;;;5003919;28;20215;-78
2021/10/16 00:54:22;;;;;;;15.27;13.87;;;8.40;99.90;;;;;;5001393;28;20208;-79
2021/10/16 00:56:51;;;;;;;17.40;15.83;;;8.40;99.90;;;;;;5009130;28;20229;-78
2021/10/16 00:59:19;;;;;;;15.50;14.20;;;8.40;99.90;;;;;;5001404;28;20666;-78
2021/10/16 01:01:46;;;;;;;16.27;15.00;;;8.40;99.90;;;;;;5004020;28;20290;-78
2021/10/16 01:04:15;;;;;;;14.80;13.60;;;8.40;99.90;;;;;;5004699;28;20199;-78
2021/10/16 01:06:49;;;;;;;15.93;14.53;;;8.40;99.90;;;;;;5004193;28;20230;-78
2021/10/16 01:09:17;;;;;;;15.80;14.50;;;8.40;99.90;;;;;;5007077;28;20667;-78
2021/10/16 01:11:48;;;;;;;15.10;13.90;;;8.40;99.90;;;;;;5009709;28;20727;-79
2021/10/16 01:14:15;;;;;;;15.97;14.60;;;8.30;99.90;;;;;;5007867;28;20590;-78
2021/10/16 01:16:45;;;;;;;15.47;14.27;;;8.40;99.90;;;;;;5020701;28;20220;-79
2021/10/16 01:19:14;;;;;;;14.67;13.50;;;8.30;99.90;;;;;;5020563;28;20216;-78
2021/10/16 01:21:44;;;;;;;14.97;13.80;;;8.30;99.90;;;;;;5004069;28;20263;-78
2021/10/16 01:24:13;;;;;;;16.20;14.80;;;8.20;99.90;;;;;;5004349;28;20667;-78
2021/10/16 01:26:41;;;;;;;15.77;14.47;;;8.20;99.90;;;;;;5003971;28;20773;-79
2021/10/16 01:29:10;;;;;;;15.53;14.20;;;8.10;99.90;;;;;;5007487;28;20205;-78
2021/10/16 01:31:38;;;;;;;15.77;14.47;;;8.10;99.90;;;;;;5008967;28;20218;-78
2021/10/16 01:34:05;;;;;;;15.20;13.93;;;8.10;99.90;;;;;;5006003;28;20293;-78
2021/10/16 01:36:52;;;;;;;16.40;15.10;;;8.00;99.90;;;;;;5020275;28;20207;-78
2021/10/16 01:39:23;;;;;;;15.87;14.57;;;8.00;99.90;;;;;;5019644;28;20726;-77
2021/10/16 01:41:51;;;;;;;16.90;15.30;;;8.00;99.90;;;;;;5003889;28;20225;-78
2021/10/16 01:44:18;;;;;;;17.37;15.87;;;8.00;99.90;;;;;;5004927;28;20215;-79
2021/10/16 01:46:45;;;;;;;17.47;16.13;;;8.00;99.90;;;;;;5008190;28;20786;-78
2021/10/16 01:49:18;;;;;;;16.67;15.30;;;8.00;99.90;;;;;;5000045;28;20221;-78
2021/10/16 01:51:48;;;;;;;17.13;15.80;;;8.00;99.90;;;;;;5008283;28;20203;-78
2021/10/16 01:54:18;;;;;;;16.83;15.33;;;8.00;99.90;;;;;;5008661;28;20246;-79
2021/10/16 01:56:54;;;;;;;16.83;15.40;;;7.90;99.90;;;;;;5018056;28;20216;-78
2021/10/16 01:59:23;;;;;;;16.70;15.30;;;7.90;99.90;;;;;;5020100;28;20202;-78
2021/10/16 02:02:12;;;;;;;16.73;15.33;;;7.90;99.90;;;;;;5007886;28;20200;-78
2021/10/16 02:04:47;;;;;;;15.50;14.13;;;8.00;99.90;;;;;;5003481;28;20214;-78
2021/10/16 02:07:13;;;;;;;16.47;15.17;;;8.10;99.90;;;;;;5003109;28;20231;-78
2021/10/16 02:09:42;;;;;;;15.87;14.53;;;8.10;99.90;;;;;;5007180;28;20211;-78
2021/10/16 02:12:09;;;;;;;15.03;13.83;;;8.10;99.90;;;;;;5005685;28;20286;-78
2021/10/16 02:14:40;;;;;;;15.20;13.90;;;8.10;99.90;;;;;;5008039;28;20578;-78
2021/10/16 02:17:10;;;;;;;15.07;13.93;;;8.10;99.90;;;;;;5006170;28;20219;-78
2021/10/16 02:19:37;;;;;;;16.60;15.27;;;8.20;99.90;;;;;;5025851;28;20246;-78
2021/10/16 02:22:05;;;;;;;15.97;14.70;;;8.20;99.90;;;;;;5005474;28;20212;-78
2021/10/16 02:24:32;;;;;;;15.43;13.97;;;8.20;99.90;;;;;;5007975;28;20204;-77
2021/10/16 02:27:01;;;;;;;16.50;15.00;;;8.20;99.90;;;;;;5005597;28;20305;-78
2021/10/16 02:29:27;;;;;;;15.37;14.17;;;8.20;99.90;;;;;;5018733;28;20651;-76
2021/10/16 02:32:05;;;;;;;15.20;13.97;;;8.20;99.90;;;;;;5004746;28;20253;-75
2021/10/16 02:34:33;;;;;;;15.33;14.13;;;8.20;99.90;;;;;;5009900;28;20290;-75
2021/10/16 02:37:05;;;;;;;15.60;14.37;;;8.10;99.90;;;;;;5002447;28;20284;-76
2021/10/16 02:39:32;;;;;;;17.03;15.50;;;8.10;99.90;;;;;;5002201;28;20212;-76
2021/10/16 02:42:01;;;;;;;15.80;14.50;;;8.00;99.90;;;;;;5005830;28;20204;-76
2021/10/16 02:44:30;;;;;;;16.10;14.70;;;8.10;99.90;;;;;;5007794;28;20235;-77
2021/10/16 02:46:58;;;;;;;16.07;14.80;;;8.00;99.90;;;;;;5008410;28;20234;-75
2021/10/16 02:49:25;;;;;;;16.37;15.10;;;8.00;99.90;;;;;;5026406;28;20207;-75
2021/10/16 02:51:52;;;;;;;16.17;14.80;;;8.00;99.90;;;;;;5010465;28;20208;-76
2021/10/16 02:54:18;;;;;;;15.87;14.60;;;8.10;99.90;;;;;;5015351;28;20219;-77
2021/10/16 02:56:48;;;;;;;14.90;13.70;;;8.00;99.90;;;;;;5005948;28;20216;-76
2021/10/16 02:59:16;;;;;;;16.07;14.60;;;8.00;99.90;;;;;;4999336;28;20261;-76
2021/10/16 03:01:49;;;;;;;14.90;13.80;;;8.00;99.90;;;;;;5010054;28;20660;-77
2021/10/16 03:04:17;;;;;;;16.43;15.10;;;8.00;99.90;;;;;;5003267;28;20212;-76
2021/10/16 03:06:45;;;;;;;17.30;15.80;;;7.90;99.90;;;;;;5002038;28;21311;-77
2021/10/16 03:09:16;;;;;;;16.60;15.00;;;7.90;99.90;;;;;;5005224;28;20204;-77
2021/10/16 03:11:44;;;;;;;16.00;14.70;;;7.90;99.90;;;;;;5011805;28;20558;-77
2021/10/16 03:14:11;;;;;;;15.43;14.03;;;7.90;99.90;;;;;;5005160;28;20214;-76
2021/10/16 03:16:42;;;;;;;15.93;14.63;;;7.90;99.90;;;;;;5019269;28;20215;-78
2021/10/16 03:19:10;;;;;;;15.27;14.17;;;7.80;99.90;;;;;;5009811;28;20203;-76
2021/10/16 03:21:40;;;;;;;15.13;13.93;;;7.80;99.90;;;;;;5016319;28;20207;-76
2021/10/16 03:24:15;;;;;;;14.57;13.47;;;7.90;99.90;;;;;;5009920;28;20205;-76
2021/10/16 03:26:42;;;;;;;16.60;15.20;;;7.90;99.90;;;;;;5023176;28;20672;-76
2021/10/16 03:29:10;;;;;;;16.73;15.30;;;7.90;99.90;;;;;;5011817;28;20238;-76
2021/10/16 03:31:37;;;;;;;16.97;15.60;;;7.90;99.90;;;;;;5013994;28;20209;-76
2021/10/16 03:34:05;;;;;;;16.20;14.90;;;7.90;99.90;;;;;;5002473;28;20207;-76
2021/10/16 03:36:32;;;;;;;15.73;14.53;;;7.90;99.90;;;;;;5024593;28;20199;-77
2021/10/16 03:38:59;;;;;;;15.13;14.03;;;7.90;99.90;;;;;;5011460;28;20211;-77
2021/10/16 03:41:26;;;;;;;16.10;14.80;;;7.80;99.90;;;;;;5011903;28;20230;-76
2021/10/16 03:43:53;;;;;;;15.57;14.47;;;7.80;99.90;;;;;;5009715;28;20214;-76
2021/10/16 03:46:20;;;;;;;15.93;14.63;;;7.80;99.90;;;;;;5021136;28;20681;-76
2021/10/16 03:48:47;;;;;;;16.13;14.83;;;7.80;99.90;;;;;;5024059;28;20203;-77
2021/10/16 03:51:16;;;;;;;16.13;14.83;;;7.80;99.90;;;;;;5000869;28;20751;-77
2021/10/16 03:53:42;;;;;;;16.70;15.37;;;7.80;99.90;;;;;;5000723;28;20672;-77
2021/10/16 03:56:09;;;;;;;15.47;14.27;;;7.80;99.90;;;;;;4998579;28;20574;-77
2021/10/16 03:58:36;;;;;;;16.00;14.70;;;7.80;99.90;;;;;;4999629;28;20215;-77
2021/10/16 04:01:03;;;;;;;16.30;15.00;;;7.80;99.90;;;;;;5002569;28;20629;-77
2021/10/16 04:03:31;;;;;;;15.77;14.57;;;7.80;99.90;;;;;;5021461;28;20239;-77
2021/10/16 04:05:59;;;;;;;15.80;14.50;;;7.80;99.90;;;;;;5014118;28;20246;-76
2021/10/16 04:08:27;;;;;;;15.37;14.07;;;7.80;99.90;;;;;;5012530;28;20482;-77
2021/10/16 04:10:54;;;;;;;15.87;14.67;;;7.80;99.90;;;;;;5001002;28;20227;-76
2021/10/16 04:13:21;;;;;;;15.93;14.70;;;7.80;99.90;;;;;;5017615;28;20211;-77
2021/10/16 04:15:52;;;;;;;15.43;14.17;;;7.90;99.90;;;;;;5008847;28;20612;-77
2021/10/16 04:18:19;;;;;;;16.20;14.90;;;7.90;99.90;;;;;;5014951;28;20600;-77
2021/10/16 04:20:46;;;;;;;15.93;14.63;;;7.90;99.90;;;;;;5006325;28;20199;-77
2021/10/16 04:23:13;;;;;;;15.53;14.20;;;7.90;99.90;;;;;;5001307;28;20562;-77
2021/10/16 04:25:41;;;;;;;15.63;14.43;;;7.90;99.90;;;;;;5016228;28;20199;-77
2021/10/16 04:28:09;;;;;;;14.87;13.70;;;8.00;99.90;;;;;;5006126;28;20720;-77
2021/10/16 04:30:46;;;;;;;14.90;13.70;;;8.00;99.90;;;;;;5025349;28;20238;-76
2021/10/16 04:33:13;;;;;;;15.00;13.80;;;8.00;99.90;;;;;;5013676;28;20294;-77
2021/10/16 04:35:41;;;;;;;14.47;13.43;;;8.00;99.90;;;;;;5020820;28;20207;-77
2021/10/16 04:38:08;;;;;;;13.60;12.50;;;8.00;99.90;;;;;;5005391;28;20238;-77
2021/10/16 04:40:35;;;;;;;14.53;13.33;;;8.00;99.90;;;;;;5009821;28;20570;-77
2021/10/16 04:43:06;;;;;;;14.83;13.63;;;8.00;99.90;;;;;;5011410;28;20750;-77
2021/10/16 04:45:36;;;;;;;14.97;13.67;;;8.00;99.90;;;;;;5011267;28;20664;-76
2021/10/16 04:48:06;;;;;;;14.40;13.30;;;8.00;99.90;;;;;;5008635;28;20227;-76
2021/10/16 04:50:33;;;;;;;15.30;14.07;;;8.00;99.90;;;;;;5019472;28;20211;-77
2021/10/16 04:53:00;;;;;;;14.57;13.43;;;8.00;99.90;;;;;;5000115;28;20238;-77
2021/10/16 04:55:32;;;;;;;15.17;13.97;;;8.00;99.90;;;;;;5020030;28;20199;-77
2021/10/16 04:57:59;;;;;;;15.60;14.30;;;8.10;99.90;;;;;;5000969;28;20243;-77
2021/10/16 05:00:37;;;;;;;15.10;13.83;;;8.10;99.90;;;;;;4997995;28;20215;-77
2021/10/16 05:03:08;;;;;;;14.90;13.80;;;8.00;99.90;;;;;;5021174;28;20716;-77
2021/10/16 05:05:36;;;;;;;14.73;13.53;;;8.00;99.90;;;;;;5023275;28;20613;-77
2021/10/16 05:08:05;;;;;;;15.10;13.93;;;7.90;99.90;;;;;;5011456;28;20234;-77
2021/10/16 05:10:32;;;;;;;14.53;13.33;;;8.00;99.90;;;;;;5003919;28;20202;-77
2021/10/16 05:12:58;;;;;;;15.00;13.60;;;8.00;99.90;;;;;;5010836;28;20215;-77
2021/10/16 05:15:25;;;;;;;14.83;13.53;;;8.00;99.90;;;;;;5008056;28;20289;-77
2021/10/16 05:17:54;;;;;;;14.40;13.30;;;8.00;99.90;;;;;;5009312;28;20270;-77
2021/10/16 05:20:26;;;;;;;15.50;14.23;;;8.00;99.90;;;;;;5002356;28;20211;-77
2021/10/16 05:22:53;;;;;;;15.63;14.17;;;8.10;99.90;;;;;;5003803;28;20299;-77
2021/10/16 05:25:20;;;;;;;15.33;14.10;;;8.00;99.90;;;;;;5001890;28;20264;-77
2021/10/16 05:27:49;;;;;;;15.30;14.20;;;8.00;99.90;;;;;;5000019;28;20221;-77
2021/10/16 05:30:17;;;;;;;15.47;14.27;;;8.00;99.90;;;;;;5003042;28;20214;-77
2021/10/16 05:32:45;;;;;;;14.77;13.43;;;8.00;99.90;;;;;;5016537;28;20271;-77
2021/10/16 05:35:16;;;;;;;14.27;13.17;;;7.90;99.90;;;;;;5000361;28;20247;-77
2021/10/16 05:37:43;;;;;;;15.00;13.70;;;7.90;99.90;;;;;;5012621;28;20589;-77
2021/10/16 05:40:12;;;;;;;15.03;13.67;;;7.80;99.90;;;;;;5019961;28;20560;-77
2021/10/16 05:42:41;;;;;;;16.90;15.40;;;7.90;99.90;;;;;;4996448;28;20274;-77
2021/10/16 05:45:08;;;;;;;15.60;14.40;;;7.90;99.90;;;;;;5032885;28;20588;-77
2021/10/16 05:47:36;;;;;;;15.37;14.20;;;7.80;99.90;;;;;;5003044;28;20227;-77
2021/10/16 05:50:07;;;;;;;15.40;14.10;;;7.80;99.90;;;;;;5011997;28;20281;-77
2021/10/16 05:52:36;;;;;;;15.57;14.30;;;7.80;99.90;;;;;;5009447;28;20650;-78
2021/10/16 05:55:03;;;;;;;16.27;14.87;;;7.80;99.90;;;;;;5010934;28;20268;-76
2021/10/16 05:57:31;;;;;;;16.20;14.93;;;7.80;99.90;;;;;;5006726;28;20948;-77
2021/10/16 05:59:57;;;;;;;16.13;14.90;;;7.90;99.90;;;;;;4999910;28;20298;-77
2021/10/16 06:02:26;;;;;;;17.47;16.00;;;7.90;99.90;;;;;;5003294;28;20212;-77
2021/10/16 06:04:54;;;;;;;16.37;15.10;;;7.90;99.90;;;;;;5006867;28;20201;-77
2021/10/16 06:07:21;;;;;;;15.37;14.27;;;7.90;99.90;;;;;;5006598;28;20319;-76
2021/10/16 06:09:51;;;;;;;15.17;13.90;;;7.90;99.90;;;;;;5010889;28;20252;-78
2021/10/16 06:12:18;;;;;;;15.30;14.20;;;8.00;99.90;;;;;;5008499;28;20210;-77
2021/10/16 06:14:44;;;;;;;15.60;14.30;;;8.00;99.90;;;;;;5023578;28;20215;-77
2021/10/16 06:17:28;;;;;;;14.73;13.63;;;8.00;99.90;;;;;;5006322;28;20306;-77
2021/10/16 06:19:55;;;;;;;15.57;14.40;;;8.00;99.90;;;;;;5010363;28;20211;-77
2021/10/16 06:22:23;;;;;;;15.70;14.50;;;7.90;99.90;;;;;;5010347;28;20711;-77
2021/10/16 06:24:52;;;;;;;15.80;14.53;;;7.90;99.90;;;;;;5011452;28;20203;-77
2021/10/16 06:27:20;;;;;;;15.43;14.30;;;8.00;99.90;;;;;;5009542;28;20318;-77
2021/10/16 06:29:48;;;;;;;15.40;14.20;;;8.10;99.90;;;;;;5019653;28;20207;-77
2021/10/16 06:32:15;;;;;;;15.13;13.90;;;8.20;99.90;;;;;;5011988;28;20227;-77
2021/10/16 06:34:45;;;;;;;15.70;14.40;;;8.20;99.90;;;;;;5014863;28;20236;-77
2021/10/16 06:37:12;;;;;;;16.33;15.03;;;8.30;99.90;;;;;;5004450;28;20223;-77
2021/10/16 06:39:39;;;;;;;15.80;14.60;;;8.30;99.90;;;;;;5012479;28;20290;-78
2021/10/16 06:42:09;;;;;;;17.70;16.17;;;8.40;99.90;;;;;;5012360;28;20625;-77
2021/10/16 06:45:06;;;;;;;17.33;15.83;;;8.50;99.90;;;;;;4981332;28;20283;-79
2021/10/16 06:47:41;;;;;;;16.30;14.80;;;8.50;99.90;;;;;;5016507;28;20223;-80
2021/10/16 06:50:43;;;;;;;16.87;15.40;;;8.60;99.90;;;;;;5007917;28;20233;-77
2021/10/16 06:53:10;;;;;;;15.57;14.37;;;8.60;99.90;;;;;;5010338;28;20197;-77
2021/10/16 06:55:37;;;;;;;16.30;14.80;;;8.70;99.90;;;;;;5006591;28;20200;-79
2021/10/16 06:58:05;;;;;;;14.70;13.50;;;8.70;99.90;;;;;;5012579;28;20217;-77
2021/10/16 07:00:32;;;;;;;15.67;14.47;;;8.70;99.90;;;;;;5006105;28;20208;-77
2021/10/16 07:03:13;;;;;;;16.00;14.70;;;8.80;99.90;;;;;;5009806;28;20231;-77
2021/10/16 07:05:42;;;;;;;15.57;14.27;;;8.80;99.90;;;;;;5010132;28;20218;-77
2021/10/16 07:08:09;;;;;;;15.47;14.27;;;8.90;99.90;;;;;;5009500;28;20240;-77
2021/10/16 07:10:37;;;;;;;15.03;13.93;;;9.00;99.90;;;;;;5009998;28;20211;-77
2021/10/16 07:13:08;;;;;;;13.90;12.60;;;9.10;99.90;;;;;;5002699;28;20626;-77
2021/10/16 07:15:35;;;;;;;13.80;12.70;;;9.10;99.90;;;;;;5026615;28;20223;-77
2021/10/16 07:18:02;;;;;;;14.90;13.70;;;9.20;99.90;;;;;;5012360;28;20212;-78
2021/10/16 07:20:29;;;;;;;14.70;13.60;;;9.30;99.90;;;;;;5025818;28;20204;-77
2021/10/16 07:22:57;;;;;;;13.80;12.73;;;9.30;99.90;;;;;;4998542;28;20644;-77
2021/10/16 07:25:24;;;;;;;13.90;12.80;;;9.40;99.90;;;;;;5011590;28;20254;-77
2021/10/16 07:27:51;;;;;;;14.53;13.40;;;9.40;99.90;;;;;;5023393;28;20212;-77
2021/10/16 07:30:20;;;;;;;14.83;13.63;;;9.50;99.90;;;;;;5014914;28;20252;-77
2021/10/16 07:32:47;;;;;;;15.43;14.17;;;9.60;99.90;;;;;;5007642;28;20646;-76
2021/10/16 07:35:14;;;;;;;17.23;15.63;;;9.60;99.90;;;;;;5001415;28;20213;-77
2021/10/16 07:37:41;;;;;;;18.17;16.60;;;9.60;99.90;;;;;;5015732;28;20225;-77
2021/10/16 07:40:09;;;;;;;17.97;16.27;;;9.60;99.90;;;;;;5017728;28;20700;-76
2021/10/16 07:42:37;;;;;;;17.57;16.07;;;9.60;99.90;;;;;;5015325;28;20212;-77
2021/10/16 07:45:04;;;;;;;17.20;15.80;;;9.70;99.90;;;;;;5020014;28;20196;-79
2021/10/16 07:47:32;;;;;;;17.93;16.13;;;9.70;99.90;;;;;;5021670;28;20240;-78
2021/10/16 07:49:59;;;;;;;14.43;13.03;;;9.80;99.90;;;;;;5009405;28;20228;-77
2021/10/16 07:52:26;;;;;;;16.67;15.37;;;9.80;99.90;;;;;;5004576;28;20207;-77
2021/10/16 07:54:53;;;;;;;16.63;15.23;;;9.90;99.90;;;;;;5016841;28;20209;-77
2021/10/16 07:57:21;;;;;;;11.30;10.20;;;10.00;99.90;;;;;;5017863;28;20220;-77
2021/10/16 07:59:48;;;;;;;11.13;7.77;;;10.20;99.90;;;;;;5008921;28;20737;-77
2021/10/16 08:02:15;;;;;;;10.57;9.40;;;10.20;99.90;;;;;;5008731;28;20205;-77
2021/10/16 08:04:43;;;;;;;10.93;9.83;;;10.40;99.90;;;;;;5014249;28;20206;-75
2021/10/16 08:07:10;;;;;;;11.93;10.73;;;10.50;99.90;;;;;;5014134;28;20233;-77
2021/10/16 08:09:37;;;;;;;14.60;10.23;;;10.60;99.90;;;;;;5016130;28;20223;-77
2021/10/16 08:12:06;;;;;;;12.33;9.57;;;10.70;99.90;;;;;;5011383;28;20201;-77
2021/10/16 08:14:34;;;;;;;12.73;10.77;;;10.80;99.90;;;;;;5009711;28;20205;-77
2021/10/16 08:17:00;;;;;;;18.10;16.30;;;10.80;99.90;;;;;;5013057;28;20226;-77
2021/10/16 08:19:27;;;;;;;17.53;15.83;;;10.90;99.90;;;;;;5009714;28;20202;-77
2021/10/16 08:21:56;;;;;;;13.17;11.07;;;10.90;99.90;;;;;;5013938;28;20207;-77
2021/10/16 08:24:23;;;;;;;13.20;11.80;;;10.90;99.90;;;;;;5014945;28;20210;-78
2021/10/16 08:26:50;;;;;;;13.87;11.83;;;11.00;99.90;;;;;;5007013;28;20212;-77
2021/10/16 08:29:17;;;;;;;14.07;9.90;;;11.10;99.90;;;;;;5018695;28;20583;-78
2021/10/16 08:31:44;;;;;;;13.73;9.30;;;11.20;99.90;;;;;;5006310;28;20204;-78
2021/10/16 08:34:10;;;;;;;10.57;8.43;;;11.30;99.90;;;;;;5017066;28;20211;-77
2021/10/16 08:36:38;;;;;;;17.43;15.70;;;11.50;99.90;;;;;;5005411;28;20267;-77
2021/10/16 08:39:07;;;;;;;17.97;16.23;;;11.50;99.90;;;;;;5004062;28;20209;-78
2021/10/16 08:41:35;;;;;;;16.97;15.53;;;11.50;99.90;;;;;;5017504;28;20198;-77
2021/10/16 08:44:01;;;;;;;12.00;10.70;;;11.70;99.90;;;;;;5003100;28;20198;-77
2021/10/16 08:46:30;;;;;;;12.03;10.83;;;11.80;99.90;;;;;;5007711;28;20207;-78
2021/10/16 08:49:03;;;;;;;17.03;15.00;;;11.90;99.90;;;;;;5001272;28;20649;-77
2021/10/16 08:51:30;;;;;;;17.00;15.30;;;12.00;99.90;;;;;;5002500;28;20204;-78
2021/10/16 08:53:57;;;;;;;18.37;16.57;;;12.00;99.90;;;;;;5003600;28;20204;-77
2021/10/16 08:56:25;;;;;;;13.77;12.37;;;12.00;99.90;;;;;;5005157;28;20206;-78
2021/10/16 08:58:52;;;;;;;13.13;9.07;;;12.00;99.90;;;;;;5010023;28;20196;-78
2021/10/16 09:01:19;;;;;;;13.63;9.27;;;12.00;99.90;;;;;;5010298;28;20670;-77
2021/10/16 09:03:47;;;;;;;11.90;9.17;;;12.10;99.90;;;;;;5000204;28;20189;-77
2021/10/16 09:06:15;;;;;;;13.00;10.07;;;12.20;99.90;;;;;;5011043;28;20283;-78
2021/10/16 09:08:46;;;;;;;14.30;10.93;;;12.30;99.90;;;;;;4998428;28;20237;-78
2021/10/16 09:11:26;;;;;;;13.43;9.60;;;12.30;99.90;;;;;;5012637;28;20195;-78
2021/10/16 09:13:58;;;;;;;12.07;9.33;;;12.40;99.90;;;;;;5019243;28;20207;-78
2021/10/16 09:16:31;;;;;;;18.23;16.63;;;12.30;99.90;;;;;;5010482;28;20194;-79
2021/10/16 09:19:02;;;;;;;10.90;8.13;;;12.40;99.90;;;;;;5007498;28;20192;-77
2021/10/16 09:21:30;;;;;;;11.17;9.47;;;12.50;99.90;;;;;;5012301;28;20208;-75
2021/10/16 09:24:03;;;;;;;10.70;9.40;;;12.50;99.90;;;;;;5000885;28;20202;-77
2021/10/16 09:26:32;;;;;;;20.03;11.17;;;12.40;99.90;;;;;;5004874;28;20672;-76
2021/10/16 09:29:02;;;;;;;13.47;10.83;;;12.40;99.90;;;;;;5011081;28;20273;-75
2021/10/16 09:31:37;;;;;;;15.80;14.13;;;12.20;99.90;;;;;;5015534;28;20204;-77
2021/10/16 09:34:05;;;;;;;15.03;10.70;;;12.20;99.90;;;;;;5007413;28;20195;-78
2021/10/16 09:36:34;;;;;;;17.27;15.70;;;12.30;99.90;;;;;;5010030;28;20232;-77
2021/10/16 09:39:02;;;;;;;14.47;12.97;;;12.40;99.90;;;;;;5022999;28;20732;-76
2021/10/16 09:41:30;;;;;;;18.27;16.57;;;12.60;99.90;;;;;;5016590;28;20205;-77
2021/10/16 09:43:59;;;;;;;12.73;9.97;;;13.00;99.90;;;;;;5003795;28;20200;-77
2021/10/16 09:46:26;;;;;;;14.57;13.07;;;13.40;99.90;;;;;;5007498;28;20254;-78
2021/10/16 09:48:53;;;;;;;12.43;11.23;;;13.70;99.90;;;;;;5011805;28;20216;-78
2021/10/16 09:51:22;;;;;;;15.50;14.10;;;14.10;99.90;;;;;;5005120;28;20633;-77
2021/10/16 09:53:50;;;;;;;10.50;9.50;;;14.10;99.90;;;;;;5008219;28;20572;-77
2021/10/16 09:56:18;;;;;;;10.30;9.10;;;14.20;99.90;;;;;;5006303;28;20565;-77
2021/10/16 09:58:45;;;;;;;12.20;9.37;;;14.00;99.90;;;;;;5018473;28;20196;-78
2021/10/16 10:01:13;;;;;;;16.50;14.50;;;13.80;99.90;;;;;;5009032;28;20689;-77
2021/10/16 10:03:42;;;;;;;14.13;10.30;;;13.60;99.90;;;;;;5001150;28;20194;-77
2021/10/16 10:06:28;;;;;;;16.23;14.67;;;13.50;99.90;;;;;;5015150;28;20567;-78
2021/10/16 10:08:55;;;;;;;19.33;17.53;;;13.60;99.90;;;;;;5010259;28;20224;-78
2021/10/16 10:11:22;;;;;;;17.73;16.23;;;13.30;99.90;;;;;;5007294;28;21090;-76
2021/10/16 10:13:50;;;;;;;19.43;17.63;;;13.30;99.90;;;;;;5008887;28;20271;-78
2021/10/16 10:16:18;;;;;;;18.10;16.50;;;13.20;99.90;;;;;;5009160;28;20205;-77
2021/10/16 10:19:01;;;;;;;18.20;16.63;;;13.20;99.90;;;;;;5013286;28;20275;-76
2021/10/16 10:21:33;;;;;;;17.53;16.03;;;13.20;99.90;;;;;;5009084;28;20552;-79
2021/10/16 10:24:02;;;;;;;17.30;15.80;;;13.20;99.90;;;;;;5004669;28;20209;-78
2021/10/16 10:26:31;;;;;;;16.57;15.17;;;13.20;99.90;;;;;;5003879;28;20271;-78
2021/10/16 10:29:09;;;;;;;17.53;16.13;;;13.30;99.90;;;;;;5010937;28;20216;-80
2021/10/16 10:32:10;;;;;;;17.60;16.10;;;13.40;99.90;;;;;;5009773;28;20563;-79
2021/10/16 10:34:39;;;;;;;13.37;12.17;;;13.60;99.90;;;;;;5011046;28;20211;-80
2021/10/16 10:37:12;;;;;;;17.10;15.60;;;13.80;99.90;;;;;;5012861;28;20724;-78
2021/10/16 10:39:50;;;;;;;18.20;15.33;;;13.90;99.90;;;;;;5022820;28;20208;-81
2021/10/16 10:42:51;;;;;;;13.27;11.80;;;13.90;99.90;;;;;;5000466;28;20201;-78
2021/10/16 10:45:36;;;;;;;16.97;15.47;;;13.90;99.90;;;;;;5019380;28;20639;-80
2021/10/16 10:48:16;;;;;;;11.57;10.47;;;13.80;99.90;;;;;;5023616;28;20224;-79
2021/10/16 10:50:55;;;;;;;12.30;10.97;;;13.80;99.90;;;;;;5012210;28;20200;-78
2021/10/16 10:53:34;;;;;;;17.93;16.37;;;13.70;99.90;;;;;;5015596;28;20196;-78
2021/10/16 10:56:03;;;;;;;18.47;16.83;;;13.60;99.90;;;;;;5013156;28;20200;-78
2021/10/16 10:59:03;;;;;;;18.00;16.30;;;13.60;99.90;;;;;;5012167;28;20229;-78
2021/10/16 11:01:59;;;;;;;18.67;16.97;;;13.60;99.90;;;;;;5011686;28;20565;-78
2021/10/16 11:04:48;;;;;;;19.90;18.00;;;13.70;99.90;;;;;;5012979;28;20219;-79
2021/10/16 11:07:18;;;;;;;19.47;17.67;;;13.50;99.90;;;;;;5013200;28;20307;-78
2021/10/16 11:09:45;;;;;;;12.03;10.70;;;13.50;99.90;;;;;;5011205;28;20224;-78
2021/10/16 11:12:14;;;;;;;18.67;17.03;;;13.60;99.90;;;;;;5018086;28;20256;-78
2021/10/16 11:14:42;;;;;;;19.33;17.50;;;13.70;99.90;;;;;;5029050;28;20203;-78
2021/10/16 11:17:12;;;;;;;19.27;17.53;;;13.90;99.90;;;;;;5014845;28;20574;-79
2021/10/16 11:19:54;;;;;;;16.70;15.40;;;14.00;99.90;;;;;;5013353;28;20200;-78
2021/10/16 11:22:23;;;;;;;19.63;17.73;;;14.10;99.90;;;;;;5012317;28;20204;-78
2021/10/16 11:24:59;;;;;;;17.70;16.23;;;14.00;99.90;;;;;;5016278;28;20252;-78
2021/10/16 11:27:25;;;;;;;19.27;17.53;;;14.00;99.90;;;;;;5018633;28;20223;-78
2021/10/16 11:29:52;;;;;;;20.63;18.70;;;13.90;99.90;;;;;;5015747;28;20220;-76
2021/10/16 11:32:22;;;;;;;19.83;17.97;;;13.80;99.90;;;;;;5021758;28;20204;-77
2021/10/16 11:35:01;;;;;;;17.57;15.97;;;13.60;99.90;;;;;;5016321;28;20251;-78
2021/10/16 11:37:41;;;;;;;20.80;18.77;;;13.60;99.90;;;;;;5024222;28;20220;-76
2021/10/16 11:40:10;;;;;;;20.47;18.40;;;13.70;99.90;;;;;;5022786;28;20199;-76
2021/10/16 11:42:38;;;;;;;21.17;19.17;;;13.50;99.90;;;;;;5012989;28;20209;-77
2021/10/16 11:45:11;;;;;;;21.43;19.13;;;13.50;99.90;;;;;;5017878;28;20292;-81
2021/10/16 11:47:39;;;;;;;19.40;17.50;;;13.60;99.90;;;;;;5026239;28;20212;-81
2021/10/16 11:50:14;;;;;;;20.23;18.23;;;13.70;99.90;;;;;;5025874;28;20212;-80
2021/10/16 11:52:42;;;;;;;21.73;19.53;;;13.70;99.90;;;;;;5029857;28;20196;-81
2021/10/16 11:55:11;;;;;;;21.10;19.03;;;13.70;99.90;;;;;;5026990;28;20216;-80
2021/10/16 11:57:39;;;;;;;20.53;18.53;;;13.60;99.90;;;;;;5034618;28;20263;-82
2021/10/16 12:00:23;;;;;;;19.33;17.63;;;13.60;99.90;;;;;;5044105;28;20185;-82
2021/10/16 12:02:51;;;;;;;17.93;16.23;;;13.70;99.90;;;;;;5032674;28;20205;-82
2021/10/16 12:05:20;;;;;;;18.87;16.90;;;13.80;99.90;;;;;;5030632;28;20196;-86
2021/10/16 12:07:48;;;;;;;17.63;15.80;;;13.90;99.90;;;;;;5023588;28;20232;-84
2021/10/16 12:10:24;;;;;;;18.60;16.60;;;14.20;99.90;;;;;;5026763;28;20228;-83
2021/10/16 12:13:12;;;;;;;16.53;11.57;;;14.20;99.90;;;;;;5026560;28;20251;-84
2021/10/16 12:15:46;;;;;;;19.57;17.73;;;14.40;99.90;;;;;;5019084;28;20560;-84
2021/10/16 12:18:18;;;;;;;21.83;19.93;;;14.60;99.90;;;;;;5023843;28;20204;-86
2021/10/16 12:20:49;;;;;;;19.77;17.87;;;14.70;99.90;;;;;;5031478;28;20200;-84
2021/10/16 12:23:17;;;;;;;19.30;17.43;;;14.80;99.90;;;;;;5022267;28;20202;-84
2021/10/16 12:25:46;;;;;;;18.30;16.73;;;14.70;99.90;;;;;;5023412;28;20306;-83
2021/10/16 12:28:13;;;;;;;18.53;16.93;;;14.60;99.90;;;;;;5030849;28;20221;-85
2021/10/16 12:31:02;;;;;;;19.67;17.97;;;14.50;99.90;;;;;;5029061;28;20224;-84
2021/10/16 12:33:28;;;;;;;18.60;16.97;;;14.40;99.90;;;;;;5030292;28;20221;-84
2021/10/16 12:36:02;;;;;;;22.23;20.13;;;14.30;99.90;;;;;;5028666;28;20260;-84
2021/10/16 12:38:46;;;;;;;24.37;21.97;;;14.40;99.90;;;;;;5027594;28;20213;-81
2021/10/16 12:41:26;;;;;;;22.30;20.07;;;14.20;99.90;;;;;;5020124;28;20193;-79
2021/10/16 12:43:54;;;;;;;21.40;19.27;;;14.10;99.90;;;;;;5020154;28;20213;-79
2021/10/16 12:46:28;;;;;;;21.20;19.17;;;14.10;99.90;;;;;;5018363;28;20203;-80